Time;durP1;ratioP1;P1;durP2;ratioP2;P2;SDS_P1;SDS_P2;PMS_P1;PMS_P2;Temp;Humidity;BMP_temperature;BMP_pressure;BME280_temperature;BME280_humidity;BME280_pressure;Samples;Min_cycle;Max_cycle;Signal;HPM_P1;HPM_P2
2023/08/19 00:01:20;;;;;;;4.40;2.33;;;26.50;58.40;;;;;;2308651;55;20964;-69
2023/08/19 00:03:51;;;;;;;3.47;1.98;;;26.50;58.40;;;;;;2546989;54;21067;-70
2023/08/19 00:06:38;;;;;;;3.83;2.00;;;26.50;58.40;;;;;;2511536;54;21513;-68
2023/08/19 00:09:07;;;;;;;3.15;1.73;;;26.40;58.40;;;;;;2547345;54;20944;-69
2023/08/19 00:11:37;;;;;;;3.47;1.92;;;26.40;58.30;;;;;;2546632;54;21150;-71
2023/08/19 00:14:04;;;;;;;3.10;1.70;;;26.40;58.40;;;;;;2281188;56;20956;-69
2023/08/19 00:16:30;;;;;;;4.20;1.80;;;26.40;58.40;;;;;;2536353;54;21550;-70
2023/08/19 00:18:57;;;;;;;3.15;1.92;;;26.30;58.30;;;;;;2490590;54;20994;-71
2023/08/19 00:21:24;;;;;;;3.42;2.10;;;26.30;58.30;;;;;;2547828;54;20960;-70
2023/08/19 00:23:51;;;;;;;4.10;2.12;;;26.30;58.50;;;;;;2281201;55;20982;-66
2023/08/19 00:26:18;;;;;;;3.60;2.20;;;26.30;58.60;;;;;;2282288;55;21022;-70
2023/08/19 00:28:44;;;;;;;3.50;1.90;;;26.30;58.60;;;;;;2282682;55;21018;-69
2023/08/19 00:31:11;;;;;;;3.10;2.15;;;26.30;58.60;;;;;;2510370;55;20929;-70
2023/08/19 00:33:38;;;;;;;3.53;2.28;;;26.20;58.60;;;;;;2280416;55;21092;-66
2023/08/19 00:36:04;;;;;;;3.10;1.90;;;26.20;58.60;;;;;;2508974;55;20998;-69
2023/08/19 00:38:31;;;;;;;3.33;2.00;;;26.20;58.60;;;;;;2279664;55;21123;-70
2023/08/19 00:40:57;;;;;;;3.40;1.98;;;26.10;58.60;;;;;;2508433;55;20929;-70
2023/08/19 00:43:24;;;;;;;3.78;1.95;;;26.10;58.70;;;;;;2479061;55;20954;-68
2023/08/19 00:45:57;;;;;;;2.90;1.92;;;26.10;58.70;;;;;;2281599;55;21503;-68
2023/08/19 00:48:25;;;;;;;3.08;1.85;;;26.00;58.60;;;;;;2280740;55;20978;-68
2023/08/19 00:50:51;;;;;;;3.72;1.80;;;26.00;58.60;;;;;;2276529;56;20997;-71
2023/08/19 00:53:17;;;;;;;3.83;2.25;;;26.00;59.20;;;;;;2514685;55;21031;-70
2023/08/19 00:55:44;;;;;;;3.03;1.70;;;26.00;58.60;;;;;;2514191;55;20930;-68
2023/08/19 00:58:11;;;;;;;3.30;1.77;;;25.90;58.60;;;;;;2281301;55;20991;-69
2023/08/19 01:00:41;;;;;;;4.55;1.80;;;25.90;58.60;;;;;;2513770;55;21002;-71
2023/08/19 01:03:07;;;;;;;3.20;1.83;;;25.90;58.60;;;;;;2514691;55;20997;-69
2023/08/19 01:06:15;;;;;;;3.80;1.70;;;25.80;58.60;;;;;;2491501;55;1248052;-70
2023/08/19 01:09:37;;;;;;;3.70;1.95;;;25.80;58.70;;;;;;2515114;55;21021;-69
2023/08/19 01:12:28;;;;;;;2.78;1.50;;;25.80;58.70;;;;;;2283147;55;20930;-69
2023/08/19 01:15:22;;;;;;;3.20;1.80;;;25.70;58.70;;;;;;2514486;55;21431;-69
2023/08/19 01:17:52;;;;;;;3.00;1.62;;;25.70;58.70;;;;;;2283160;55;21014;-71
2023/08/19 01:20:19;;;;;;;2.92;1.60;;;25.70;58.70;;;;;;2283308;55;20958;-69
2023/08/19 01:24:23;;;;;;;5.37;2.05;;;25.60;58.70;;;;;;2281417;55;21783;-69
2023/08/19 01:26:52;;;;;;;4.37;1.92;;;25.60;58.80;;;;;;2514736;55;21030;-70
2023/08/19 01:29:18;;;;;;;4.55;2.10;;;25.50;58.90;;;;;;2515294;55;21033;-69
2023/08/19 01:31:45;;;;;;;3.40;1.90;;;25.50;59.00;;;;;;2281040;55;21030;-68
2023/08/19 01:34:12;;;;;;;6.40;2.10;;;25.40;59.00;;;;;;2508425;55;20977;-70
2023/08/19 01:36:41;;;;;;;4.25;2.00;;;25.40;59.10;;;;;;2280327;55;20934;-66
2023/08/19 01:39:08;;;;;;;3.95;1.77;;;25.40;59.10;;;;;;2282809;55;20946;-68
2023/08/19 01:41:34;;;;;;;3.50;1.90;;;25.40;59.10;;;;;;2515199;55;21309;-70
2023/08/19 01:44:01;;;;;;;3.70;1.80;;;25.30;59.00;;;;;;2277875;56;21058;-69
2023/08/19 01:46:27;;;;;;;3.05;1.73;;;25.30;59.10;;;;;;2281991;55;20958;-71
2023/08/19 01:48:54;;;;;;;3.17;1.85;;;25.30;59.10;;;;;;2515011;55;20962;-69
2023/08/19 01:51:20;;;;;;;3.50;2.05;;;25.20;59.10;;;;;;2515341;55;21034;-69
2023/08/19 01:53:46;;;;;;;4.32;2.10;;;25.20;59.10;;;;;;2514890;55;21025;-69
2023/08/19 01:56:13;;;;;;;4.45;1.77;;;25.20;59.20;;;;;;2282132;55;21519;-69
2023/08/19 01:58:41;;;;;;;2.97;1.77;;;25.20;59.80;;;;;;2264947;55;21801;-72
2023/08/19 02:01:11;;;;;;;3.03;1.62;;;25.10;59.10;;;;;;2276211;55;21695;-70
2023/08/19 02:03:39;;;;;;;2.92;1.77;;;25.10;59.20;;;;;;2282583;55;20978;-68
2023/08/19 02:06:05;;;;;;;3.83;1.80;;;25.10;59.10;;;;;;2282064;55;21002;-69
2023/08/19 02:08:32;;;;;;;3.42;1.70;;;25.00;59.10;;;;;;2514914;55;20974;-69
2023/08/19 02:10:59;;;;;;;4.78;1.60;;;25.00;59.40;;;;;;2282872;55;21048;-68
2023/08/19 02:13:26;;;;;;;3.92;2.05;;;25.00;59.20;;;;;;2281201;55;20934;-71
2023/08/19 02:15:52;;;;;;;4.60;1.80;;;25.00;59.30;;;;;;2278303;55;21455;-69
2023/08/19 02:18:23;;;;;;;4.37;1.95;;;24.90;59.30;;;;;;2276003;55;21485;-70
2023/08/19 02:20:49;;;;;;;3.40;2.00;;;24.90;59.30;;;;;;2263514;55;21520;-69
2023/08/19 02:23:18;;;;;;;4.90;1.90;;;24.90;59.30;;;;;;2515352;54;20978;-69
2023/08/19 02:25:45;;;;;;;2.70;1.62;;;24.90;59.40;;;;;;2280641;56;20970;-69
2023/08/19 02:28:12;;;;;;;3.58;1.73;;;24.80;59.40;;;;;;2478380;55;20956;-69
2023/08/19 02:30:40;;;;;;;3.42;1.90;;;24.80;59.40;;;;;;2287648;55;21045;-68
2023/08/19 02:33:08;;;;;;;2.97;1.80;;;24.80;59.40;;;;;;2479989;55;21814;-69
2023/08/19 02:35:35;;;;;;;2.58;1.40;;;24.80;59.40;;;;;;2282317;56;21086;-67
2023/08/19 02:38:02;;;;;;;3.87;1.87;;;24.70;59.30;;;;;;2281893;56;20974;-68
2023/08/19 02:40:30;;;;;;;3.97;2.00;;;24.70;59.50;;;;;;2282269;56;20950;-69
2023/08/19 02:42:56;;;;;;;4.32;1.65;;;24.60;59.50;;;;;;2515639;55;21918;-69
2023/08/19 02:45:27;;;;;;;2.67;1.42;;;24.60;59.50;;;;;;2282379;56;20978;-69
2023/08/19 02:47:54;;;;;;;3.42;1.85;;;24.60;59.40;;;;;;2260437;56;20960;-68
2023/08/19 02:50:24;;;;;;;3.42;1.70;;;24.60;59.40;;;;;;2283079;56;20924;-70
2023/08/19 02:52:50;;;;;;;3.35;1.80;;;24.60;59.40;;;;;;2514570;55;20975;-67
2023/08/19 02:55:17;;;;;;;3.05;1.60;;;24.50;59.30;;;;;;2514947;55;20962;-71
2023/08/19 02:57:43;;;;;;;4.20;1.77;;;24.50;59.30;;;;;;2280338;56;21061;-69
2023/08/19 03:00:10;;;;;;;2.87;1.52;;;24.50;59.30;;;;;;2263376;56;20947;-69
2023/08/19 03:02:37;;;;;;;3.22;1.60;;;24.40;59.30;;;;;;2274088;55;20945;-68
2023/08/19 03:05:04;;;;;;;3.65;2.10;;;24.40;59.30;;;;;;2516288;55;21013;-70
2023/08/19 03:07:30;;;;;;;3.30;1.65;;;24.40;59.50;;;;;;2509373;55;21821;-69
2023/08/19 03:09:56;;;;;;;3.08;1.65;;;24.40;59.60;;;;;;2511684;55;20983;-69
2023/08/19 03:12:23;;;;;;;4.15;1.70;;;24.40;59.60;;;;;;2515431;55;20966;-68
2023/08/19 03:14:50;;;;;;;2.87;1.52;;;24.30;59.50;;;;;;2282147;55;21780;-69
2023/08/19 03:17:17;;;;;;;4.05;1.48;;;24.30;59.40;;;;;;2516002;55;21428;-69
2023/08/19 03:19:46;;;;;;;2.85;1.60;;;24.30;59.40;;;;;;2506545;55;20954;-68
2023/08/19 03:22:14;;;;;;;5.15;1.40;;;24.30;59.40;;;;;;2282545;55;20963;-68
2023/08/19 03:24:40;;;;;;;3.42;1.48;;;24.20;59.40;;;;;;2281662;55;21006;-68
2023/08/19 03:27:06;;;;;;;3.05;1.48;;;24.20;59.40;;;;;;2282569;55;20950;-71
2023/08/19 03:29:33;;;;;;;3.25;1.55;;;24.20;59.40;;;;;;2281844;55;20982;-67
2023/08/19 03:31:59;;;;;;;4.57;1.62;;;24.10;59.30;;;;;;2282608;55;21669;-68
2023/08/19 03:34:26;;;;;;;2.70;1.48;;;24.10;59.50;;;;;;2515118;55;20950;-70
2023/08/19 03:36:52;;;;;;;3.78;1.83;;;24.10;59.50;;;;;;2282484;55;20939;-71
2023/08/19 03:39:19;;;;;;;2.95;1.30;;;24.10;59.50;;;;;;2281898;55;20978;-69
2023/08/19 03:41:45;;;;;;;4.12;1.50;;;24.10;59.50;;;;;;2514533;55;21057;-69
2023/08/19 03:44:12;;;;;;;4.25;1.50;;;24.00;59.40;;;;;;2527282;54;21008;-69
2023/08/19 03:46:39;;;;;;;3.15;1.50;;;24.00;59.50;;;;;;2307828;55;21130;-70
2023/08/19 03:49:05;;;;;;;3.17;1.77;;;23.90;59.50;;;;;;2308617;55;21834;-69
2023/08/19 03:51:31;;;;;;;3.22;1.67;;;23.90;59.50;;;;;;2547174;54;20952;-69
2023/08/19 03:53:58;;;;;;;4.35;1.62;;;23.90;59.60;;;;;;2527035;54;21077;-69
2023/08/19 03:56:24;;;;;;;2.30;1.30;;;23.90;59.60;;;;;;2531926;54;21016;-69
2023/08/19 03:58:50;;;;;;;3.28;1.62;;;23.90;59.60;;;;;;2546863;54;21063;-70
2023/08/19 04:01:17;;;;;;;2.47;1.05;;;23.80;59.60;;;;;;2547585;54;20951;-69
2023/08/19 04:03:43;;;;;;;3.03;1.65;;;23.90;59.60;;;;;;2547029;54;20940;-71
2023/08/19 04:06:09;;;;;;;3.17;1.40;;;23.80;59.60;;;;;;2281919;55;20977;-71
2023/08/19 04:08:36;;;;;;;2.45;1.40;;;23.80;59.50;;;;;;2546339;54;20999;-70
2023/08/19 04:11:06;;;;;;;2.90;1.50;;;23.80;59.50;;;;;;2308364;55;21392;-71
2023/08/19 04:13:34;;;;;;;3.20;1.45;;;23.70;59.50;;;;;;2308372;55;20924;-70
2023/08/19 04:16:12;;;;;;;3.05;1.45;;;23.70;59.50;;;;;;2547225;54;20940;-69
2023/08/19 04:18:38;;;;;;;3.20;1.75;;;23.70;59.70;;;;;;2546884;54;20960;-66
2023/08/19 04:21:05;;;;;;;2.90;1.42;;;23.60;59.60;;;;;;2309379;55;21032;-69
2023/08/19 04:23:33;;;;;;;7.10;1.80;;;23.70;59.60;;;;;;2547523;54;20991;-69
2023/08/19 04:25:59;;;;;;;3.50;1.80;;;23.60;59.60;;;;;;2547052;54;21413;-68
2023/08/19 04:28:29;;;;;;;3.53;1.30;;;23.60;59.70;;;;;;2547618;54;20999;-70
2023/08/19 04:31:07;;;;;;;2.95;1.50;;;23.60;59.70;;;;;;2546563;54;21748;-71
2023/08/19 04:33:34;;;;;;;7.32;1.58;;;23.60;59.70;;;;;;2547110;54;20968;-69
2023/08/19 04:36:02;;;;;;;4.72;1.90;;;23.50;59.70;;;;;;2547312;54;20920;-69
2023/08/19 04:38:31;;;;;;;3.37;1.67;;;23.50;59.70;;;;;;2308737;55;21004;-70
2023/08/19 04:41:00;;;;;;;2.72;1.62;;;23.50;59.80;;;;;;2308536;55;20988;-69
2023/08/19 04:43:27;;;;;;;3.58;1.60;;;23.50;60.00;;;;;;2547401;54;20935;-70
2023/08/19 04:45:55;;;;;;;4.45;1.42;;;23.50;60.00;;;;;;2545939;54;21523;-70
2023/08/19 04:48:21;;;;;;;3.22;1.80;;;23.50;60.00;;;;;;2547112;54;20936;-69
2023/08/19 04:50:49;;;;;;;3.87;1.80;;;23.50;60.00;;;;;;2546781;54;20984;-69
2023/08/19 04:53:15;;;;;;;2.67;1.40;;;23.50;60.10;;;;;;2306565;55;21818;-69
2023/08/19 04:55:44;;;;;;;4.22;1.30;;;23.40;60.00;;;;;;2283531;55;21007;-69
2023/08/19 04:58:11;;;;;;;2.72;1.35;;;23.50;60.20;;;;;;2541429;54;21004;-69
2023/08/19 05:00:37;;;;;;;2.75;1.50;;;23.40;60.10;;;;;;2282901;55;20967;-69
2023/08/19 05:03:04;;;;;;;3.10;1.30;;;23.40;60.10;;;;;;2308518;55;21038;-70
2023/08/19 05:05:30;;;;;;;3.62;1.60;;;23.40;60.90;;;;;;2308334;55;21448;-71
2023/08/19 05:07:57;;;;;;;2.42;1.27;;;23.40;60.30;;;;;;2308530;55;21500;-71
2023/08/19 05:10:23;;;;;;;3.50;1.73;;;23.40;60.40;;;;;;2308425;55;21019;-68
2023/08/19 05:12:51;;;;;;;3.33;1.87;;;23.50;60.60;;;;;;2514321;54;21011;-69
2023/08/19 05:15:17;;;;;;;2.90;1.65;;;23.40;60.60;;;;;;2280086;55;20912;-69
2023/08/19 05:17:44;;;;;;;2.47;1.40;;;23.50;60.80;;;;;;2546612;54;20952;-70
2023/08/19 05:20:13;;;;;;;2.83;1.35;;;23.50;60.90;;;;;;2290336;55;20979;-68
2023/08/19 05:22:41;;;;;;;3.95;1.80;;;23.50;61.00;;;;;;2281597;55;20994;-69
2023/08/19 05:25:10;;;;;;;3.67;1.60;;;23.50;61.00;;;;;;2308620;55;20952;-69
2023/08/19 05:27:37;;;;;;;4.37;1.65;;;23.50;61.00;;;;;;2308336;55;20940;-69
2023/08/19 05:30:08;;;;;;;4.45;1.70;;;23.60;61.20;;;;;;2515216;54;21525;-69
2023/08/19 05:32:34;;;;;;;4.53;1.90;;;23.60;61.30;;;;;;2277642;56;20982;-70
2023/08/19 05:35:01;;;;;;;3.25;1.55;;;23.60;61.40;;;;;;2546732;54;21536;-70
2023/08/19 05:37:27;;;;;;;3.33;1.58;;;23.60;61.40;;;;;;2546852;54;20948;-69
2023/08/19 05:39:54;;;;;;;2.60;1.58;;;23.70;61.50;;;;;;2546620;54;20993;-67
2023/08/19 05:42:20;;;;;;;2.90;1.60;;;23.70;61.60;;;;;;2308201;55;22054;-66
2023/08/19 05:44:46;;;;;;;3.42;1.60;;;23.80;61.70;;;;;;2530898;54;21001;-68
2023/08/19 05:47:15;;;;;;;4.78;1.73;;;23.80;61.70;;;;;;2526764;54;20956;-70
2023/08/19 05:49:42;;;;;;;2.50;1.42;;;23.90;61.80;;;;;;2546534;54;21703;-68
2023/08/19 05:52:08;;;;;;;4.62;1.67;;;23.90;61.80;;;;;;2547138;54;21240;-68
2023/08/19 05:54:36;;;;;;;3.30;1.67;;;23.90;61.80;;;;;;2546593;54;21603;-69
2023/08/19 05:57:02;;;;;;;6.10;1.80;;;24.00;61.90;;;;;;2546307;54;21962;-69
2023/08/19 05:59:30;;;;;;;2.87;1.60;;;24.10;62.10;;;;;;2547011;54;20952;-68
2023/08/19 06:01:56;;;;;;;3.53;1.60;;;24.10;62.10;;;;;;2546474;54;21035;-71
2023/08/19 06:04:22;;;;;;;2.78;1.50;;;24.20;62.30;;;;;;2308512;55;20991;-68
2023/08/19 06:06:49;;;;;;;3.45;1.87;;;24.20;62.40;;;;;;2307937;55;21133;-68
2023/08/19 06:09:16;;;;;;;3.12;1.58;;;24.30;62.50;;;;;;2309030;55;21027;-71
2023/08/19 06:11:52;;;;;;;2.90;1.80;;;24.30;62.60;;;;;;2546735;54;21035;-69
2023/08/19 06:14:19;;;;;;;4.07;2.50;;;24.40;63.10;;;;;;2547109;54;20952;-69
2023/08/19 06:16:46;;;;;;;4.50;2.60;;;24.50;62.90;;;;;;2308065;55;21777;-71
2023/08/19 06:19:13;;;;;;;3.00;1.95;;;24.60;63.00;;;;;;2548008;54;21023;-68
2023/08/19 06:21:42;;;;;;;3.42;2.20;;;24.60;63.00;;;;;;2308647;55;21864;-67
2023/08/19 06:24:08;;;;;;;7.15;2.20;;;24.70;62.90;;;;;;2547092;54;20972;-69
2023/08/19 06:26:35;;;;;;;3.40;1.80;;;24.80;62.80;;;;;;2547766;54;21334;-71
2023/08/19 06:29:02;;;;;;;4.18;2.33;;;24.80;62.70;;;;;;2547195;54;21009;-68
2023/08/19 06:31:28;;;;;;;4.10;2.37;;;25.00;62.80;;;;;;2546914;54;20936;-71
2023/08/19 06:33:57;;;;;;;4.45;2.47;;;25.00;62.80;;;;;;2509797;54;20955;-70
2023/08/19 06:36:27;;;;;;;3.97;2.30;;;25.10;62.80;;;;;;2309560;55;21008;-70
2023/08/19 06:39:36;;;;;;;4.10;2.08;;;25.20;62.80;;;;;;2520500;54;20970;-69
2023/08/19 06:42:03;;;;;;;4.18;2.08;;;25.20;62.90;;;;;;2547100;54;21007;-70
2023/08/19 06:44:30;;;;;;;2.90;1.87;;;25.30;62.80;;;;;;2547357;54;20928;-71
2023/08/19 06:46:57;;;;;;;4.15;2.20;;;25.40;62.90;;;;;;2289776;55;21709;-69
2023/08/19 06:49:24;;;;;;;4.12;2.10;;;25.50;63.00;;;;;;2537916;54;21088;-69
2023/08/19 06:51:50;;;;;;;4.50;2.30;;;25.50;62.90;;;;;;2307948;55;20968;-70
2023/08/19 06:54:17;;;;;;;5.35;2.05;;;25.60;62.80;;;;;;2310333;55;21468;-70
2023/08/19 06:56:50;;;;;;;4.25;2.08;;;25.70;62.90;;;;;;2309596;55;21016;-69
2023/08/19 06:59:24;;;;;;;4.15;2.10;;;25.80;63.00;;;;;;2309762;55;21852;-70
2023/08/19 07:01:51;;;;;;;3.28;1.95;;;25.90;63.00;;;;;;2310623;55;20991;-71
2023/08/19 07:04:27;;;;;;;3.45;1.90;;;25.90;63.00;;;;;;2310223;55;20971;-70
2023/08/19 07:07:02;;;;;;;3.75;2.08;;;26.00;63.00;;;;;;2255406;56;20959;-69
2023/08/19 07:09:29;;;;;;;4.62;2.03;;;26.10;62.80;;;;;;2516057;55;21538;-70
2023/08/19 07:11:57;;;;;;;3.97;1.95;;;26.20;62.70;;;;;;2283030;55;20958;-70
2023/08/19 07:14:24;;;;;;;3.87;2.12;;;26.30;62.60;;;;;;2538677;54;20924;-71
2023/08/19 07:16:51;;;;;;;3.67;2.12;;;26.40;62.40;;;;;;2313797;55;21068;-70
2023/08/19 07:19:42;;;;;;;3.45;1.85;;;26.40;62.30;;;;;;2313000;55;21014;-71
2023/08/19 07:22:09;;;;;;;3.12;1.60;;;26.50;62.40;;;;;;2313797;55;21788;-70
2023/08/19 07:24:35;;;;;;;3.25;1.90;;;26.60;62.40;;;;;;2553780;54;21832;-72
2023/08/19 07:27:06;;;;;;;4.40;2.10;;;26.70;62.30;;;;;;2553051;54;21801;-70
2023/08/19 07:29:38;;;;;;;3.90;2.22;;;26.80;62.20;;;;;;2553520;54;20967;-68
2023/08/19 07:32:06;;;;;;;3.10;1.67;;;26.90;62.00;;;;;;2528478;54;21018;-69
2023/08/19 07:34:35;;;;;;;5.25;2.05;;;27.00;61.90;;;;;;2306993;55;21821;-69
2023/08/19 07:37:01;;;;;;;3.67;2.30;;;27.10;61.70;;;;;;2313248;55;20972;-70
2023/08/19 07:39:28;;;;;;;3.95;2.10;;;27.20;61.40;;;;;;2553223;54;20911;-70
2023/08/19 07:41:55;;;;;;;4.85;2.17;;;27.20;61.30;;;;;;2312181;55;20947;-69
2023/08/19 07:44:21;;;;;;;4.60;2.03;;;27.30;61.20;;;;;;2312894;55;21015;-69
2023/08/19 07:46:48;;;;;;;3.05;2.03;;;27.40;61.80;;;;;;2552359;54;20896;-68
2023/08/19 07:49:17;;;;;;;4.10;2.70;;;27.50;61.10;;;;;;2313334;55;20947;-69
2023/08/19 07:51:43;;;;;;;3.30;2.00;;;27.60;61.20;;;;;;2553172;54;20913;-71
2023/08/19 07:54:12;;;;;;;3.45;1.85;;;27.70;61.10;;;;;;2313239;55;20928;-68
2023/08/19 07:56:38;;;;;;;5.40;2.20;;;27.80;61.00;;;;;;2553047;54;20923;-68
2023/08/19 07:59:04;;;;;;;4.32;2.75;;;27.90;61.00;;;;;;2553653;54;20952;-71
2023/08/19 08:01:31;;;;;;;5.53;2.83;;;28.00;60.90;;;;;;2553228;54;20976;-72
2023/08/19 08:03:58;;;;;;;4.50;2.50;;;28.00;60.70;;;;;;2313463;55;21039;-69
2023/08/19 08:06:25;;;;;;;5.07;2.87;;;28.10;60.70;;;;;;2553500;54;20987;-69
2023/08/19 08:08:51;;;;;;;6.37;2.75;;;28.20;60.70;;;;;;2552677;54;20911;-71
2023/08/19 08:11:18;;;;;;;6.10;2.40;;;28.20;60.60;;;;;;2315026;55;21056;-71
2023/08/19 08:13:44;;;;;;;4.32;2.50;;;28.30;60.60;;;;;;2524642;54;21011;-70
2023/08/19 08:16:11;;;;;;;4.10;2.30;;;28.30;60.50;;;;;;2553258;54;20936;-71
2023/08/19 08:18:39;;;;;;;5.05;2.70;;;28.40;60.60;;;;;;2554232;54;21003;-68
2023/08/19 08:21:06;;;;;;;4.10;2.17;;;28.50;60.60;;;;;;2553245;54;21398;-69
2023/08/19 08:23:32;;;;;;;4.55;2.45;;;28.50;60.50;;;;;;2549173;54;21818;-69
2023/08/19 08:26:06;;;;;;;3.60;2.22;;;28.60;60.40;;;;;;2547018;54;21809;-71
2023/08/19 08:28:33;;;;;;;3.67;2.17;;;28.60;60.30;;;;;;2528474;54;21031;-69
2023/08/19 08:30:59;;;;;;;4.53;2.10;;;28.70;60.40;;;;;;2305784;55;20937;-68
2023/08/19 08:33:26;;;;;;;4.05;2.50;;;28.70;60.30;;;;;;2535446;54;21000;-70
2023/08/19 08:35:52;;;;;;;5.32;2.67;;;28.80;60.20;;;;;;2552825;54;20987;-71
2023/08/19 08:38:20;;;;;;;4.20;2.45;;;28.80;60.20;;;;;;2313890;55;21084;-71
2023/08/19 08:40:47;;;;;;;4.55;2.55;;;28.90;60.30;;;;;;2552931;54;20980;-70
2023/08/19 08:43:14;;;;;;;4.62;2.33;;;28.90;60.10;;;;;;2552696;54;21599;-69
2023/08/19 08:45:41;;;;;;;4.55;2.35;;;29.00;60.00;;;;;;2553155;54;21805;-69
2023/08/19 08:48:08;;;;;;;5.97;2.70;;;29.00;60.00;;;;;;2552967;54;21027;-71
2023/08/19 08:50:34;;;;;;;3.35;2.25;;;29.10;59.90;;;;;;2553563;54;20948;-71
2023/08/19 08:53:01;;;;;;;5.40;2.70;;;29.10;60.00;;;;;;2546907;54;20951;-70
2023/08/19 08:55:30;;;;;;;4.43;2.60;;;29.10;60.00;;;;;;2552092;54;21033;-69
2023/08/19 08:57:56;;;;;;;4.87;2.60;;;29.20;60.00;;;;;;2552729;54;20992;-70
2023/08/19 09:00:23;;;;;;;5.47;2.50;;;29.20;59.90;;;;;;2291259;55;20998;-70
2023/08/19 09:02:50;;;;;;;5.10;2.55;;;29.30;59.90;;;;;;2527971;54;20971;-69
2023/08/19 09:05:19;;;;;;;3.70;2.17;;;29.30;59.80;;;;;;2553629;54;20987;-70
2023/08/19 09:07:45;;;;;;;4.30;2.60;;;29.30;59.80;;;;;;2552918;54;20931;-68
2023/08/19 09:10:16;;;;;;;4.35;2.67;;;29.40;60.00;;;;;;2313155;55;21099;-72
2023/08/19 09:12:45;;;;;;;3.80;2.50;;;29.40;60.60;;;;;;2312787;55;21007;-71
2023/08/19 09:15:12;;;;;;;5.87;2.35;;;29.50;60.00;;;;;;2553694;54;20944;-71
2023/08/19 09:17:41;;;;;;;3.25;2.03;;;29.60;60.30;;;;;;2553645;54;20999;-71
2023/08/19 09:20:08;;;;;;;4.82;2.22;;;29.60;60.00;;;;;;2553357;54;20931;-72
2023/08/19 09:22:42;;;;;;;5.10;2.60;;;29.70;60.00;;;;;;2552617;54;21757;-71
2023/08/19 09:25:13;;;;;;;3.97;2.22;;;29.80;60.10;;;;;;2313605;55;21003;-72
2023/08/19 09:27:39;;;;;;;4.57;2.47;;;29.90;59.90;;;;;;2313806;55;20955;-72
2023/08/19 09:30:06;;;;;;;5.40;2.45;;;29.90;59.90;;;;;;2313173;55;21004;-72
2023/08/19 09:32:38;;;;;;;4.40;2.58;;;30.00;59.70;;;;;;2314657;55;20996;-72
2023/08/19 09:35:14;;;;;;;3.70;2.25;;;30.20;59.80;;;;;;2314376;55;22281;-74
2023/08/19 09:37:41;;;;;;;4.57;2.47;;;30.30;60.00;;;;;;2553711;54;20952;-72
2023/08/19 09:40:10;;;;;;;4.55;2.55;;;30.30;59.80;;;;;;2552170;54;20991;-72
2023/08/19 09:42:37;;;;;;;3.55;1.92;;;30.40;59.50;;;;;;2552386;54;20936;-71
2023/08/19 09:45:04;;;;;;;3.50;2.05;;;30.60;59.60;;;;;;2312426;55;21200;-71
2023/08/19 09:47:46;;;;;;;4.62;2.25;;;30.70;59.10;;;;;;2526256;54;21083;-71
2023/08/19 09:50:13;;;;;;;3.67;2.10;;;30.70;58.40;;;;;;2530552;54;20993;-72
2023/08/19 09:52:40;;;;;;;3.22;2.00;;;30.80;58.20;;;;;;2305677;55;20983;-72
2023/08/19 09:55:07;;;;;;;3.10;1.70;;;30.90;57.70;;;;;;2553145;54;21442;-72
2023/08/19 09:57:34;;;;;;;5.15;2.08;;;30.90;57.80;;;;;;2532847;54;20977;-71
2023/08/19 10:00:05;;;;;;;4.07;2.10;;;31.00;56.70;;;;;;2303809;55;20932;-71
2023/08/19 10:02:32;;;;;;;3.40;2.00;;;31.00;56.30;;;;;;2307726;55;21033;-72
2023/08/19 10:04:59;;;;;;;3.30;2.10;;;31.10;56.40;;;;;;2532072;54;20932;-72
2023/08/19 10:07:30;;;;;;;4.80;1.92;;;31.10;56.50;;;;;;2315574;55;21844;-70
2023/08/19 10:09:57;;;;;;;3.97;2.30;;;31.20;56.10;;;;;;2524391;54;21332;-70
2023/08/19 10:12:24;;;;;;;3.08;1.95;;;31.20;56.10;;;;;;2313988;55;20936;-72
2023/08/19 10:14:52;;;;;;;3.60;2.17;;;31.20;55.90;;;;;;2553077;54;20925;-72
2023/08/19 10:17:19;;;;;;;3.70;2.25;;;31.30;55.70;;;;;;2554169;54;21547;-72
2023/08/19 10:19:53;;;;;;;4.00;1.87;;;31.30;55.50;;;;;;2539046;54;20941;-71
2023/08/19 10:22:19;;;;;;;4.15;2.05;;;31.30;55.10;;;;;;2538666;54;20956;-71
2023/08/19 10:24:46;;;;;;;4.03;2.08;;;31.30;55.30;;;;;;2513178;55;21125;-73
2023/08/19 10:27:19;;;;;;;5.32;2.15;;;31.30;55.10;;;;;;2513815;55;21727;-71
2023/08/19 10:29:46;;;;;;;3.47;2.10;;;31.30;54.80;;;;;;2524202;54;20986;-72
2023/08/19 10:32:31;;;;;;;4.20;2.17;;;31.40;55.10;;;;;;2283199;56;21018;-73
2023/08/19 10:35:12;;;;;;;7.22;2.05;;;31.40;54.50;;;;;;2282091;56;21105;-72
2023/08/19 10:37:48;;;;;;;3.65;1.95;;;31.50;54.70;;;;;;2515332;55;20970;-70
2023/08/19 10:40:23;;;;;;;5.70;1.90;;;31.50;54.70;;;;;;2515865;55;21293;-71
2023/08/19 10:42:58;;;;;;;4.10;1.80;;;31.50;55.00;;;;;;2281933;56;21502;-72
2023/08/19 10:45:33;;;;;;;3.67;1.83;;;31.50;54.90;;;;;;2281731;56;21936;-72
2023/08/19 10:48:00;;;;;;;4.85;2.40;;;31.60;54.80;;;;;;2513930;55;21086;-71
2023/08/19 10:50:27;;;;;;;3.92;2.10;;;31.60;55.00;;;;;;2513170;55;20979;-72
2023/08/19 10:53:01;;;;;;;3.22;1.80;;;31.70;55.00;;;;;;2479000;54;21022;-73
2023/08/19 10:55:27;;;;;;;4.15;2.05;;;31.70;54.70;;;;;;2286335;56;20950;-72
2023/08/19 10:57:54;;;;;;;4.05;2.12;;;31.80;54.80;;;;;;2514961;55;20918;-71
2023/08/19 11:00:23;;;;;;;4.35;2.17;;;31.80;54.70;;;;;;2515552;55;21359;-72
2023/08/19 11:02:50;;;;;;;4.25;2.10;;;31.80;54.50;;;;;;2515244;55;20966;-72
2023/08/19 11:05:26;;;;;;;3.10;1.80;;;31.90;54.70;;;;;;2514855;55;21490;-70
2023/08/19 11:07:52;;;;;;;2.80;1.67;;;32.00;54.20;;;;;;2515201;55;20955;-72
2023/08/19 11:10:19;;;;;;;4.43;2.17;;;31.90;54.20;;;;;;2289076;55;20975;-72
2023/08/19 11:12:45;;;;;;;3.95;1.70;;;32.00;54.30;;;;;;2299176;55;20959;-72
2023/08/19 11:15:12;;;;;;;4.15;2.12;;;32.00;53.70;;;;;;2293058;55;21033;-71
2023/08/19 11:17:38;;;;;;;3.78;1.87;;;32.10;53.50;;;;;;2311046;55;20971;-72
2023/08/19 11:20:11;;;;;;;2.95;1.83;;;32.20;53.40;;;;;;2554012;54;20960;-68
2023/08/19 11:22:47;;;;;;;4.37;2.00;;;32.20;52.60;;;;;;2313260;55;20972;-72
2023/08/19 11:25:14;;;;;;;3.10;1.77;;;32.30;52.10;;;;;;2313923;55;20994;-72
2023/08/19 11:27:40;;;;;;;3.35;1.83;;;32.40;52.60;;;;;;2313092;55;21035;-71
2023/08/19 11:30:08;;;;;;;2.83;1.65;;;32.50;52.70;;;;;;2552871;54;21015;-73
2023/08/19 11:32:35;;;;;;;3.33;1.87;;;32.50;52.50;;;;;;2553849;54;21035;-71
2023/08/19 11:35:01;;;;;;;5.20;1.90;;;32.60;52.60;;;;;;2552023;54;21460;-72
2023/08/19 11:37:28;;;;;;;4.60;2.40;;;32.60;52.40;;;;;;2529572;54;20961;-74
2023/08/19 11:39:55;;;;;;;3.60;1.85;;;32.70;52.20;;;;;;2546377;54;21385;-73
2023/08/19 11:42:21;;;;;;;3.80;2.05;;;32.70;52.00;;;;;;2313493;55;20946;-72
2023/08/19 11:44:48;;;;;;;3.42;1.87;;;32.80;52.20;;;;;;2548498;54;21767;-72
2023/08/19 11:47:15;;;;;;;4.03;1.95;;;32.80;52.10;;;;;;2291859;55;20923;-74
2023/08/19 11:49:45;;;;;;;3.50;2.00;;;32.90;51.80;;;;;;2552832;54;20947;-73
2023/08/19 11:52:18;;;;;;;2.92;1.40;;;32.90;51.60;;;;;;2313672;55;20947;-73
2023/08/19 11:55:00;;;;;;;3.72;1.50;;;33.10;51.10;;;;;;2313878;55;21084;-72
2023/08/19 11:57:34;;;;;;;2.97;1.55;;;33.20;50.60;;;;;;2553521;54;21292;-74
2023/08/19 12:00:01;;;;;;;4.47;1.70;;;33.20;51.00;;;;;;2552759;54;20955;-71
2023/08/19 12:02:29;;;;;;;4.25;1.90;;;33.30;51.00;;;;;;2553563;54;20951;-73
2023/08/19 12:04:56;;;;;;;3.95;1.83;;;33.40;50.90;;;;;;2282212;56;21045;-73
2023/08/19 12:07:27;;;;;;;3.62;1.70;;;33.40;50.50;;;;;;2282145;56;20969;-73
2023/08/19 12:09:59;;;;;;;3.28;1.40;;;33.50;50.40;;;;;;2516245;55;21030;-73
2023/08/19 12:12:28;;;;;;;3.00;1.65;;;33.60;50.00;;;;;;2256705;56;21006;-73
2023/08/19 12:14:55;;;;;;;4.03;1.90;;;33.60;50.60;;;;;;2282950;56;20955;-73
2023/08/19 12:17:21;;;;;;;3.37;1.98;;;33.60;50.70;;;;;;2302966;55;20940;-73
2023/08/19 12:19:48;;;;;;;2.92;1.80;;;33.70;50.60;;;;;;2553581;54;21027;-73
2023/08/19 12:22:15;;;;;;;4.15;1.98;;;33.70;50.40;;;;;;2553421;54;21031;-73
2023/08/19 12:24:42;;;;;;;3.17;1.45;;;33.80;50.50;;;;;;2312984;55;20955;-72
2023/08/19 12:27:11;;;;;;;3.35;1.75;;;33.80;50.40;;;;;;2542850;54;20994;-73
2023/08/19 12:29:38;;;;;;;3.58;1.87;;;33.90;50.40;;;;;;2532731;54;21031;-70
2023/08/19 12:32:04;;;;;;;3.03;1.42;;;33.90;50.30;;;;;;2553042;54;20956;-72
2023/08/19 12:34:31;;;;;;;2.87;1.40;;;34.00;50.30;;;;;;2313432;55;21003;-70
2023/08/19 12:36:57;;;;;;;4.05;1.80;;;34.10;50.20;;;;;;2552906;54;21267;-73
2023/08/19 12:39:24;;;;;;;3.28;1.80;;;34.10;50.20;;;;;;2313095;55;20939;-72
2023/08/19 12:41:50;;;;;;;2.60;1.33;;;34.10;50.10;;;;;;2313536;55;21079;-71
2023/08/19 12:44:18;;;;;;;2.90;1.62;;;34.20;49.80;;;;;;2312692;55;20939;-73
2023/08/19 12:46:45;;;;;;;4.32;1.58;;;34.20;49.30;;;;;;2552054;54;20960;-72
2023/08/19 12:49:12;;;;;;;2.55;1.48;;;34.20;49.20;;;;;;2312313;55;21576;-72
2023/08/19 12:51:39;;;;;;;4.47;1.60;;;34.30;49.20;;;;;;2552219;54;21514;-73
2023/08/19 12:54:07;;;;;;;2.80;1.70;;;34.30;48.90;;;;;;2552785;54;20932;-71
2023/08/19 12:56:33;;;;;;;5.50;1.62;;;34.40;49.00;;;;;;2553561;54;20935;-72